Time;durP1;ratioP1;P1;durP2;ratioP2;P2;SDS_P1;SDS_P2;PMS_P1;PMS_P2;Temp;Humidity;BMP_temperature;BMP_pressure;BME280_temperature;BME280_humidity;BME280_pressure;Samples;Min_cycle;Max_cycle;Signal;HPM_P1;HPM_P2
2021/01/30 00:02:01;;;;;;;7.00;3.00;;;;;;;5.80;84.49;98294.19;5052418;28;20063;-78
2021/01/30 00:04:27;;;;;;;5.35;3.03;;;;;;;6.18;83.71;98344.41;5052593;28;20500;-78
2021/01/30 00:06:56;;;;;;;5.00;2.40;;;;;;;6.31;83.20;98331.94;5052269;28;20550;-79
2021/01/30 00:09:24;;;;;;;5.00;2.80;;;;;;;6.29;82.33;98317.97;5054425;28;20033;-79
2021/01/30 00:11:54;;;;;;;5.80;3.25;;;;;;;6.27;83.33;98338.44;5056460;28;20037;-79
2021/01/30 00:14:36;;;;;;;4.78;2.67;;;;;;;6.13;81.95;98282.97;5040085;28;20032;-78
2021/01/30 00:17:04;;;;;;;6.70;2.80;;;;;;;6.22;83.48;98334.41;5056517;28;20063;-79
2021/01/30 00:19:30;;;;;;;4.20;2.05;;;;;;;6.43;82.31;98342.59;5038561;28;20041;-79
2021/01/30 00:22:17;;;;;;;3.90;1.90;;;;;;;6.46;82.26;98329.09;5056150;28;20033;-75
2021/01/30 00:24:46;;;;;;;7.63;2.55;;;;;;;6.37;82.08;98329.78;5038292;28;20025;-75
2021/01/30 00:27:18;;;;;;;3.55;1.92;;;;;;;6.31;82.66;98339.88;5038933;28;20474;-75
2021/01/30 00:29:44;;;;;;;4.82;2.40;;;;;;;6.21;83.07;98351.25;5033009;28;20029;-75
2021/01/30 00:32:11;;;;;;;5.13;2.28;;;;;;;5.93;83.83;98315.34;5038743;28;20371;-75
2021/01/30 00:34:38;;;;;;;3.60;1.73;;;;;;;6.24;82.61;98345.72;5056563;28;20036;-76
2021/01/30 00:37:11;;;;;;;3.50;1.70;;;;;;;6.28;82.04;98345.41;5055990;28;20033;-76
2021/01/30 00:39:37;;;;;;;4.60;2.30;;;;;;;6.18;82.59;98339.09;5056172;28;20036;-73
2021/01/30 00:42:04;;;;;;;6.88;1.95;;;;;;;6.14;82.94;98357.94;5055657;28;20465;-73
2021/01/30 00:44:30;;;;;;;3.67;1.90;;;;;;;6.06;83.06;98345.25;5056284;28;20078;-73
2021/01/30 00:46:57;;;;;;;4.93;2.25;;;;;;;6.18;83.25;98370.88;5005146;28;20128;-74
2021/01/30 00:49:23;;;;;;;5.78;2.45;;;;;;;6.12;83.84;98371.28;5038337;28;20044;-73
2021/01/30 00:51:48;;;;;;;4.68;2.28;;;;;;;5.99;83.21;98346.69;5037777;28;20029;-74
2021/01/30 00:54:14;;;;;;;3.83;1.60;;;;;;;6.31;81.99;98371.66;5038232;28;20090;-73
2021/01/30 00:56:40;;;;;;;4.55;1.90;;;;;;;6.25;82.82;98374.75;5055697;28;20029;-73
2021/01/30 00:59:06;;;;;;;4.65;1.95;;;;;;;6.15;83.27;98373.72;5055612;28;20029;-73
2021/01/30 01:01:39;;;;;;;3.22;1.67;;;;;;;6.20;83.15;98368.94;5038159;28;20037;-72
2021/01/30 01:04:06;;;;;;;7.35;1.70;;;;;;;6.17;83.14;98361.22;5037688;28;20032;-73
2021/01/30 01:06:33;;;;;;;4.38;1.63;;;;;;;5.85;83.41;98315.00;5037753;28;20086;-73
2021/01/30 01:08:59;;;;;;;4.00;1.38;;;;;;;6.25;82.47;98364.16;5055274;28;20033;-74
2021/01/30 01:11:25;;;;;;;2.13;1.20;;;;;;;6.31;82.04;98366.38;5055546;28;20128;-74
2021/01/30 01:13:51;;;;;;;2.03;1.17;;;;;;;6.34;81.39;98367.09;5055393;28;20539;-74
2021/01/30 01:16:17;;;;;;;3.42;1.40;;;;;;;6.36;81.69;98365.19;5055709;28;20037;-74
2021/01/30 01:18:44;;;;;;;5.38;1.40;;;;;;;6.23;82.47;98359.94;5055448;28;20036;-74
2021/01/30 01:21:10;;;;;;;1.75;1.10;;;;;;;6.24;81.91;98351.88;5054897;28;20036;-74
2021/01/30 01:23:35;;;;;;;2.30;1.27;;;;;;;6.06;81.71;98318.78;5021222;28;20025;-75
2021/01/30 01:26:01;;;;;;;1.60;1.17;;;;;;;6.36;81.17;98347.47;5036886;28;20425;-76
2021/01/30 01:28:26;;;;;;;2.95;1.08;;;;;;;6.21;81.88;98344.16;5055246;28;20036;-75
2021/01/30 01:30:52;;;;;;;5.75;1.40;;;;;;;6.01;81.81;98308.56;5055135;28;20413;-79
2021/01/30 01:33:17;;;;;;;2.10;1.20;;;;;;;6.20;82.22;98344.28;5055524;28;20025;-78
2021/01/30 01:35:43;;;;;;;2.33;1.20;;;;;;;6.15;82.22;98352.53;5055239;28;20041;-78
2021/01/30 01:38:08;;;;;;;1.80;1.17;;;;;;;6.28;81.29;98358.66;5036925;28;20095;-79
2021/01/30 01:40:37;;;;;;;3.15;1.40;;;;;;;6.10;82.85;98365.28;5037264;28;20041;-78
2021/01/30 01:43:10;;;;;;;2.10;1.08;;;;;;;6.20;81.75;98354.88;5058590;28;20049;-80
2021/01/30 01:45:36;;;;;;;3.47;1.30;;;;;;;6.08;82.76;98361.03;5075159;28;20029;-75
2021/01/30 01:48:11;;;;;;;2.97;1.20;;;;;;;6.00;82.91;98359.78;5073348;28;20042;-72
2021/01/30 01:50:45;;;;;;;2.25;1.20;;;;;;;5.92;82.94;98350.72;5075085;28;20025;-72
2021/01/30 01:53:15;;;;;;;;;;;;;;;5.95;83.21;98367.19;5075057;28;20055;-72
2021/01/30 01:55:46;;;;;;;2.55;1.27;;;;;;;5.67;83.25;98331.22;5074360;28;19912;-75
2021/01/30 01:58:13;;;;;;;2.35;1.40;;;;;;;5.50;83.57;98321.03;5074511;28;20060;-75
2021/01/30 02:00:38;;;;;;;2.65;1.50;;;;;;;5.83;83.45;98375.13;5073457;28;20470;-75
2021/01/30 02:03:06;;;;;;;4.03;1.60;;;;;;;5.55;83.80;98347.97;5073067;28;20077;-75
2021/01/30 02:05:37;;;;;;;2.35;1.08;;;;;;;5.78;83.50;98379.91;5074681;28;20115;-75
2021/01/30 02:08:06;;;;;;;2.80;1.40;;;;;;;5.90;82.67;98389.63;5074249;28;20086;-75
2021/01/30 02:10:41;;;;;;;2.78;1.38;;;;;;;5.96;82.05;98389.22;5074653;28;20045;-75
2021/01/30 02:13:14;;;;;;;3.05;1.40;;;;;;;5.93;82.03;98389.44;5072820;28;20507;-76
2021/01/30 02:15:43;;;;;;;3.75;1.40;;;;;;;5.95;81.79;98387.53;5074340;28;20114;-76
2021/01/30 02:18:23;;;;;;;1.35;0.98;;;;;;;5.98;81.46;98384.66;5072871;28;20485;-74
2021/01/30 02:21:07;;;;;;;2.40;1.08;;;;;;;6.06;80.88;98389.41;5072889;28;20067;-76
2021/01/30 02:24:11;;;;;;;2.40;1.10;;;;;;;5.98;81.22;98392.59;5074191;28;20375;-74
2021/01/30 02:27:03;;;;;;;1.83;1.20;;;;;;;5.95;81.37;98392.81;5074286;28;20063;-74
2021/01/30 02:29:58;;;;;;;2.10;1.20;;;;;;;5.87;81.43;98395.13;5073426;28;20040;-72
2021/01/30 02:32:36;;;;;;;3.47;1.30;;;;;;;5.90;80.98;98394.94;5061492;28;20041;-74
2021/01/30 02:35:21;;;;;;;1.92;1.00;;;;;;;5.89;80.80;98394.09;5073831;28;20036;-74
2021/01/30 02:37:56;;;;;;;2.58;1.00;;;;;;;5.87;80.39;98384.53;5074314;28;20044;-73
2021/01/30 02:40:25;;;;;;;2.78;1.05;;;;;;;5.91;80.42;98392.19;5072483;28;20029;-73
2021/01/30 02:43:03;;;;;;;2.13;0.80;;;;;;;5.98;79.44;98387.31;5062584;28;20114;-74
2021/01/30 02:45:35;;;;;;;1.52;0.90;;;;;;;6.00;78.26;98372.19;5053794;28;20063;-72
2021/01/30 02:48:38;;;;;;;2.10;1.00;;;;;;;6.14;78.65;98398.50;5053358;28;20029;-73
2021/01/30 02:51:08;;;;;;;1.65;0.75;;;;;;;6.21;77.89;98399.75;5002475;28;20067;-72
2021/01/30 02:53:43;;;;;;;2.03;0.73;;;;;;;6.08;78.23;98384.84;5053608;28;20043;-73
2021/01/30 02:56:08;;;;;;;2.63;0.90;;;;;;;6.07;78.56;98402.53;5035635;28;20428;-73
2021/01/30 02:58:40;;;;;;;2.15;0.80;;;;;;;5.90;78.16;98368.47;5053621;28;20033;-79
2021/01/30 03:01:06;;;;;;;1.67;1.00;;;;;;;6.05;78.45;98409.75;5053290;28;20098;-75
2021/01/30 03:03:33;;;;;;;2.25;0.77;;;;;;;6.02;78.58;98397.56;5035594;28;20045;-75
2021/01/30 03:06:22;;;;;;;3.92;0.85;;;;;;;6.01;78.86;98398.53;5052899;28;20115;-75
2021/01/30 03:09:03;;;;;;;3.25;0.90;;;;;;;6.01;78.50;98402.97;5035619;28;20033;-75
2021/01/30 03:11:41;;;;;;;1.05;0.80;;;;;;;5.90;79.11;98402.88;5053690;28;20029;-75
2021/01/30 03:14:19;;;;;;;2.17;0.85;;;;;;;6.11;77.98;98417.25;5053267;28;20036;-75
2021/01/30 03:16:47;;;;;;;1.80;1.00;;;;;;;6.02;78.46;98410.81;5053487;28;20029;-75
2021/01/30 03:19:28;;;;;;;2.38;0.90;;;;;;;5.75;78.94;98395.03;5053070;28;20029;-75
2021/01/30 03:21:59;;;;;;;3.40;1.08;;;;;;;6.02;78.09;98417.91;5052924;28;20036;-75
2021/01/30 03:24:26;;;;;;;3.17;1.00;;;;;;;6.03;78.20;98399.25;5053674;28;20029;-74
2021/01/30 03:26:52;;;;;;;1.75;0.85;;;;;;;6.06;78.28;98415.88;5052914;28;20144;-75
2021/01/30 03:29:19;;;;;;;1.38;0.88;;;;;;;6.23;77.25;98413.72;5053126;28;20064;-75
2021/01/30 03:31:45;;;;;;;1.55;0.95;;;;;;;6.04;77.67;98410.69;5053095;28;20052;-74
2021/01/30 03:34:12;;;;;;;2.78;0.90;;;;;;;6.10;78.07;98418.22;5052680;28;20040;-74
2021/01/30 03:36:38;;;;;;;3.67;1.10;;;;;;;6.00;78.48;98418.03;5035174;28;20119;-73
2021/01/30 03:39:07;;;;;;;2.97;1.30;;;;;;;5.95;78.43;98408.69;5034703;28;20040;-74
2021/01/30 03:41:33;;;;;;;4.82;1.35;;;;;;;5.60;78.90;98377.59;5035084;28;20128;-74
2021/01/30 03:43:58;;;;;;;3.00;0.90;;;;;;;5.75;78.46;98381.81;5053991;28;20124;-79
2021/01/30 03:46:24;;;;;;;1.85;1.02;;;;;;;5.90;78.89;98424.03;5035523;28;20048;-81
2021/01/30 03:48:49;;;;;;;1.85;0.88;;;;;;;5.81;79.45;98422.03;5035157;28;20498;-80
2021/01/30 03:51:15;;;;;;;1.85;0.90;;;;;;;5.57;79.19;98366.38;5034604;28;20067;-81
2021/01/30 03:53:40;;;;;;;2.03;1.08;;;;;;;5.64;79.73;98400.22;5052913;28;20033;-79
2021/01/30 03:56:06;;;;;;;3.15;1.30;;;;;;;5.68;79.79;98417.56;5034623;28;20029;-79
2021/01/30 03:58:31;;;;;;;3.08;1.15;;;;;;;5.67;79.66;98409.75;5053036;28;20040;-78
2021/01/30 04:00:57;;;;;;;3.10;1.27;;;;;;;5.62;80.16;98407.44;5052643;28;20032;-78
2021/01/30 04:03:22;;;;;;;2.58;1.23;;;;;;;5.52;79.93;98392.31;5035224;28;20058;-79
2021/01/30 04:05:47;;;;;;;2.67;1.10;;;;;;;5.82;79.15;98421.06;5035309;28;20056;-75
2021/01/30 04:08:13;;;;;;;3.35;0.98;;;;;;;5.55;78.61;98374.41;5052419;28;20036;-74
2021/01/30 04:10:38;;;;;;;2.55;1.17;;;;;;;5.89;78.63;98431.13;5052670;28;20040;-77
2021/01/30 04:13:10;;;;;;;2.88;1.10;;;;;;;5.52;79.19;98384.38;5034645;28;20180;-76
2021/01/30 04:15:39;;;;;;;2.55;1.30;;;;;;;5.84;78.95;98430.59;5052794;28;20104;-75
2021/01/30 04:18:05;;;;;;;2.47;0.95;;;;;;;5.80;79.32;98436.22;5034429;28;20371;-77
2021/01/30 04:20:31;;;;;;;2.83;1.20;;;;;;;5.49;79.49;98380.13;5052543;28;20037;-77
2021/01/30 04:22:56;;;;;;;2.65;1.20;;;;;;;5.66;79.15;98397.47;5052348;28;20584;-77
2021/01/30 04:25:24;;;;;;;3.25;1.30;;;;;;;5.81;79.89;98436.09;5052576;28;20040;-75
2021/01/30 04:27:50;;;;;;;4.05;1.30;;;;;;;5.61;79.41;98392.53;5052597;28;20082;-74
2021/01/30 04:30:18;;;;;;;4.30;1.30;;;;;;;5.81;79.33;98422.03;5052502;28;20029;-75
2021/01/30 04:32:44;;;;;;;4.78;1.33;;;;;;;5.71;80.05;98416.53;5052704;28;20029;-74
2021/01/30 04:35:11;;;;;;;3.30;1.40;;;;;;;5.49;80.51;98413.66;5017829;28;20029;-75
2021/01/30 04:37:36;;;;;;;4.18;1.50;;;;;;;5.43;81.32;98433.44;5052217;28;20037;-74
2021/01/30 04:40:07;;;;;;;3.90;1.30;;;;;;;5.13;81.47;98408.13;5052183;28;20094;-76
2021/01/30 04:42:55;;;;;;;2.72;1.17;;;;;;;5.36;81.57;98421.59;5054477;28;20044;-74
2021/01/30 04:45:36;;;;;;;3.30;1.30;;;;;;;5.25;82.06;98430.25;5051831;28;20049;-77
2021/01/30 04:48:28;;;;;;;3.03;1.33;;;;;;;5.24;82.13;98430.34;5051953;28;20068;-78
2021/01/30 04:51:25;;;;;;;2.10;1.10;;;;;;;5.41;81.64;98440.66;5014085;28;20040;-77
2021/01/30 04:54:04;;;;;;;3.85;1.40;;;;;;;5.34;81.60;98444.66;5051161;28;20037;-77
2021/01/30 04:56:51;;;;;;;3.13;1.63;;;;;;;5.26;82.37;98436.38;5053649;28;20037;-76
2021/01/30 04:59:34;;;;;;;3.50;1.70;;;;;;;5.17;82.51;98443.13;5055696;28;20029;-77
2021/01/30 05:02:03;;;;;;;2.28;1.23;;;;;;;5.25;82.52;98445.25;5055487;28;20052;-77
2021/01/30 05:04:34;;;;;;;3.67;1.55;;;;;;;5.37;82.00;98452.34;5055892;28;20390;-76
2021/01/30 05:07:19;;;;;;;5.20;1.65;;;;;;;5.43;81.64;98459.88;5055733;28;20027;-78
2021/01/30 05:09:58;;;;;;;3.10;1.40;;;;;;;5.42;81.51;98453.75;5027391;28;20065;-77
2021/01/30 05:12:43;;;;;;;3.20;1.27;;;;;;;5.40;81.68;98460.06;5055130;28;20120;-77
2021/01/30 05:15:09;;;;;;;2.92;1.30;;;;;;;5.29;82.24;98452.03;5037608;28;20107;-77
2021/01/30 05:17:39;;;;;;;3.53;1.30;;;;;;;5.15;82.65;98440.59;5055435;28;20389;-77
2021/01/30 05:20:09;;;;;;;2.33;1.15;;;;;;;5.23;82.59;98447.16;5037465;28;20082;-78
2021/01/30 05:22:39;;;;;;;4.55;1.15;;;;;;;5.03;83.38;98446.69;5055495;28;20025;-76
2021/01/30 05:25:11;;;;;;;3.15;1.50;;;;;;;4.89;83.55;98438.81;5055027;28;20040;-75
2021/01/30 05:27:47;;;;;;;2.63;1.17;;;;;;;5.10;83.28;98449.75;5055173;28;20029;-78
2021/01/30 05:30:49;;;;;;;4.20;1.60;;;;;;;5.15;82.57;98448.50;5037272;28;20119;-77
2021/01/30 05:33:36;;;;;;;4.85;1.60;;;;;;;5.14;82.34;98428.31;5037073;28;20032;-77
2021/01/30 05:36:11;;;;;;;2.88;1.30;;;;;;;5.22;82.70;98445.47;5037229;28;20056;-76
2021/01/30 05:38:55;;;;;;;2.35;1.25;;;;;;;5.34;81.87;98465.78;5055086;28;20539;-77
2021/01/30 05:41:48;;;;;;;2.50;1.13;;;;;;;5.39;81.66;98474.25;5036762;28;20379;-74
2021/01/30 05:44:18;;;;;;;2.10;1.35;;;;;;;5.38;82.17;98477.84;5070149;28;20520;-74
2021/01/30 05:46:48;;;;;;;3.03;1.25;;;;;;;5.41;81.56;98477.66;5073906;28;20032;-74
2021/01/30 05:49:18;;;;;;;3.85;1.30;;;;;;;5.45;81.14;98471.19;5074535;28;20032;-73
2021/01/30 05:52:07;;;;;;;3.92;1.42;;;;;;;5.54;81.13;98489.09;5075050;28;20119;-72
2021/01/30 05:54:32;;;;;;;2.30;1.30;;;;;;;5.50;81.76;98489.38;5074210;28;20052;-73
2021/01/30 05:56:58;;;;;;;2.40;1.30;;;;;;;5.29;81.47;98441.44;5074752;28;20113;-73
2021/01/30 05:59:27;;;;;;;3.35;1.40;;;;;;;5.58;81.37;98495.84;5073563;28;20042;-77
2021/01/30 06:02:11;;;;;;;2.67;1.35;;;;;;;5.58;82.13;98485.28;5074648;28;20031;-77
2021/01/30 06:04:37;;;;;;;2.17;1.40;;;;;;;5.62;81.53;98493.88;5073310;28;20039;-77
2021/01/30 06:07:03;;;;;;;3.83;1.50;;;;;;;5.55;81.43;98485.50;5074435;28;20117;-77
2021/01/30 06:09:36;;;;;;;2.80;1.52;;;;;;;5.75;80.62;98507.94;5074310;28;20079;-77
2021/01/30 06:12:17;;;;;;;6.05;1.80;;;;;;;5.78;81.08;98512.19;5073454;28;20036;-77
2021/01/30 06:14:43;;;;;;;3.75;1.58;;;;;;;5.67;81.90;98502.31;5074503;28;20476;-77
2021/01/30 06:17:23;;;;;;;3.15;1.40;;;;;;;5.68;81.92;98511.94;5073129;28;20043;-77
2021/01/30 06:20:12;;;;;;;4.22;1.83;;;;;;;5.67;81.60;98515.56;5074498;28;20032;-77
2021/01/30 06:22:38;;;;;;;3.05;1.70;;;;;;;5.60;81.53;98520.44;5074369;28;20021;-77
2021/01/30 06:25:24;;;;;;;4.28;1.77;;;;;;;5.59;82.01;98513.41;5073020;28;20025;-77
2021/01/30 06:27:54;;;;;;;4.82;1.90;;;;;;;5.62;82.07;98507.94;5072506;28;20040;-77
2021/01/30 06:30:46;;;;;;;3.42;1.70;;;;;;;5.56;81.89;98512.78;5072343;28;20032;-75
2021/01/30 06:33:44;;;;;;;3.63;1.67;;;;;;;5.49;82.17;98512.34;5067756;28;20051;-77
2021/01/30 06:36:18;;;;;;;3.08;1.58;;;;;;;5.50;82.64;98514.06;5072507;28;20036;-76
2021/01/30 06:38:52;;;;;;;5.13;1.92;;;;;;;5.40;82.09;98479.47;5074273;28;20107;-77
2021/01/30 06:41:25;;;;;;;5.20;1.83;;;;;;;5.56;82.21;98511.00;5073819;28;20102;-79
2021/01/30 06:44:04;;;;;;;5.22;1.80;;;;;;;5.64;82.81;98507.84;5072349;28;20123;-80
2021/01/30 06:46:29;;;;;;;4.60;1.80;;;;;;;5.42;82.71;98474.06;5073600;28;20058;-81
2021/01/30 06:49:13;;;;;;;3.50;1.73;;;;;;;5.70;81.44;98505.63;5072581;28;20033;-80
2021/01/30 06:51:38;;;;;;;4.20;1.90;;;;;;;5.56;82.09;98486.34;5074122;28;20024;-80
2021/01/30 06:54:21;;;;;;;5.28;2.35;;;;;;;5.59;81.84;98502.84;5074330;28;20390;-80
2021/01/30 06:57:12;;;;;;;5.80;2.20;;;;;;;5.71;81.60;98495.91;5074012;28;20439;-79
2021/01/30 06:59:50;;;;;;;3.72;1.70;;;;;;;5.66;81.70;98504.13;5073085;28;20608;-79
2021/01/30 07:02:22;;;;;;;4.07;1.75;;;;;;;5.75;81.51;98508.78;5072096;28;20032;-77
2021/01/30 07:05:21;;;;;;;4.45;1.85;;;;;;;5.62;81.42;98476.19;5073508;28;20031;-74
2021/01/30 07:07:59;;;;;;;6.00;2.38;;;;;;;5.92;80.81;98515.63;5072896;28;20044;-74
2021/01/30 07:10:35;;;;;;;5.53;2.10;;;;;;;5.94;80.95;98502.28;5073605;28;20040;-74
2021/01/30 07:13:15;;;;;;;5.78;2.05;;;;;;;6.01;80.62;98504.41;5073372;28;20032;-74
2021/01/30 07:15:55;;;;;;;6.35;2.22;;;;;;;5.97;80.85;98494.13;5073229;28;20056;-76
2021/01/30 07:18:28;;;;;;;5.55;2.20;;;;;;;5.98;80.31;98488.75;5074087;28;20027;-74
2021/01/30 07:21:15;;;;;;;5.18;2.85;;;;;;;6.05;80.66;98509.47;5072023;28;20021;-75
2021/01/30 07:24:03;;;;;;;7.30;3.13;;;;;;;5.94;80.95;98504.94;5073108;28;20059;-74
2021/01/30 07:26:39;;;;;;;6.07;2.63;;;;;;;5.94;81.57;98512.88;5072807;28;20028;-74
2021/01/30 07:29:22;;;;;;;6.00;2.67;;;;;;;6.02;81.19;98506.09;5073327;28;20032;-75
2021/01/30 07:32:05;;;;;;;5.33;2.10;;;;;;;6.22;80.06;98512.66;5073151;28;20032;-75
2021/01/30 07:34:36;;;;;;;3.35;1.73;;;;;;;6.22;79.90;98511.81;5072742;28;20576;-78
2021/01/30 07:37:15;;;;;;;3.17;1.80;;;;;;;6.22;80.25;98512.66;5073079;28;20042;-77
2021/01/30 07:39:46;;;;;;;3.55;1.70;;;;;;;6.26;79.72;98503.53;5072792;28;20481;-78
2021/01/30 07:42:20;;;;;;;3.13;1.42;;;;;;;6.28;78.87;98487.56;5071214;28;20044;-77
2021/01/30 07:45:13;;;;;;;3.08;1.30;;;;;;;6.40;78.36;98504.38;5035169;28;20510;-80
2021/01/30 07:48:10;;;;;;;4.33;1.47;;;;;;;6.62;78.19;98504.53;5035002;28;20033;-74
2021/01/30 07:50:38;;;;;;;3.40;1.45;;;;;;;6.96;76.07;98486.19;5034818;28;20424;-79
2021/01/30 07:53:08;;;;;;;4.38;1.77;;;;;;;7.14;75.90;98496.28;5052826;28;20029;-76
2021/01/30 07:55:55;;;;;;;4.03;1.50;;;;;;;7.15;75.24;98494.50;5034412;28;20033;-76
2021/01/30 07:58:32;;;;;;;2.88;1.48;;;;;;;7.24;74.58;98501.75;5052767;28;20037;-75
2021/01/30 08:01:09;;;;;;;4.32;1.80;;;;;;;7.30;74.60;98490.69;5052938;28;20037;-76
2021/01/30 08:03:46;;;;;;;2.88;1.52;;;;;;;7.35;74.85;98499.16;5052652;28;20033;-77
2021/01/30 08:06:12;;;;;;;3.47;1.60;;;;;;;7.32;75.45;98495.88;5052767;28;20032;-79
2021/01/30 08:09:03;;;;;;;2.88;1.50;;;;;;;7.31;75.09;98481.75;5052268;28;20083;-73
2021/01/30 08:11:41;;;;;;;5.28;1.65;;;;;;;7.41;75.42;98492.53;5038233;28;20045;-73
2021/01/30 08:14:21;;;;;;;3.17;1.40;;;;;;;7.57;75.04;98487.75;5052761;28;20032;-77
2021/01/30 08:16:50;;;;;;;2.70;1.67;;;;;;;7.51;75.53;98484.72;5052759;28;20029;-77
2021/01/30 08:19:47;;;;;;;3.33;1.33;;;;;;;7.49;75.29;98484.84;5052207;28;20424;-78
2021/01/30 08:22:33;;;;;;;3.72;1.67;;;;;;;7.56;75.30;98488.72;5052608;28;20108;-79
2021/01/30 08:25:09;;;;;;;4.22;1.40;;;;;;;7.69;73.81;98480.66;5052671;28;20033;-79
2021/01/30 08:27:41;;;;;;;4.28;1.73;;;;;;;7.70;74.04;98495.63;5052219;28;20052;-79
2021/01/30 08:30:14;;;;;;;2.80;1.20;;;;;;;7.61;74.69;98478.59;5052438;28;20040;-79
2021/01/30 08:32:54;;;;;;;5.25;1.67;;;;;;;7.62;74.17;98490.06;5037882;28;20028;-79
2021/01/30 08:35:25;;;;;;;2.85;1.65;;;;;;;7.68;75.03;98497.56;5056368;28;20186;-77
2021/01/30 08:38:03;;;;;;;4.40;1.80;;;;;;;7.65;74.70;98496.00;5056442;28;20041;-80
2021/01/30 08:40:56;;;;;;;3.78;1.73;;;;;;;7.81;73.69;98485.03;5055843;28;20098;-79
2021/01/30 08:43:34;;;;;;;4.00;1.15;;;;;;;7.92;72.41;98489.53;5052736;28;20072;-80
2021/01/30 08:46:21;;;;;;;3.28;1.50;;;;;;;7.96;72.41;98489.19;5056411;28;20497;-81
2021/01/30 08:49:04;;;;;;;2.95;1.67;;;;;;;8.04;71.88;98485.94;5055802;28;20029;-79
2021/01/30 08:51:30;;;;;;;2.85;1.40;;;;;;;8.10;72.47;98489.91;5056172;28;20036;-75
2021/01/30 08:53:57;;;;;;;2.70;1.50;;;;;;;8.03;71.47;98482.44;5055794;28;20486;-80
2021/01/30 08:56:46;;;;;;;4.68;1.48;;;;;;;8.06;71.62;98493.78;5056035;28;20043;-76
2021/01/30 08:59:46;;;;;;;2.78;1.45;;;;;;;8.18;70.73;98487.50;5055899;28;20114;-76
2021/01/30 09:02:32;;;;;;;4.78;1.52;;;;;;;8.34;70.45;98488.00;5055737;28;20029;-76
2021/01/30 09:05:07;;;;;;;4.03;1.80;;;;;;;8.37;70.76;98482.47;5039014;28;20102;-75
2021/01/30 09:07:37;;;;;;;3.85;1.80;;;;;;;8.55;69.50;98475.69;5055145;28;20166;-76
2021/01/30 09:10:29;;;;;;;3.03;1.40;;;;;;;8.43;69.73;98455.41;5055788;28;20045;-80
2021/01/30 09:13:08;;;;;;;3.50;1.77;;;;;;;8.64;70.37;98490.06;5055598;28;20033;-77
2021/01/30 09:15:40;;;;;;;3.47;1.65;;;;;;;8.69;69.82;98489.69;5037423;28;20029;-80
2021/01/30 09:18:34;;;;;;;3.80;1.80;;;;;;;8.78;69.82;98496.91;5037936;28;20033;-83
2021/01/30 09:21:07;;;;;;;5.35;2.03;;;;;;;8.73;69.35;98499.09;5055830;28;20029;-80
2021/01/30 09:24:10;;;;;;;4.38;2.20;;;;;;;8.76;68.98;98498.84;5055143;28;20029;-77
2021/01/30 09:26:49;;;;;;;6.07;1.70;;;;;;;8.60;68.60;98502.75;5037088;28;20037;-70
2021/01/30 09:29:21;;;;;;;3.00;1.60;;;;;;;8.49;69.07;98509.88;5057046;28;20029;-68
2021/01/30 09:31:55;;;;;;;5.35;1.88;;;;;;;8.46;68.75;98497.69;5038046;28;20029;-72
2021/01/30 09:34:22;;;;;;;4.80;1.77;;;;;;;8.21;68.99;98456.25;5055109;28;20025;-73
2021/01/30 09:36:53;;;;;;;3.35;1.88;;;;;;;8.49;69.32;98507.22;5054874;28;20037;-70
2021/01/30 09:39:36;;;;;;;4.93;1.60;;;;;;;8.43;69.13;98492.63;5055132;28;20037;-72
2021/01/30 09:42:15;;;;;;;3.85;1.73;;;;;;;8.48;70.82;98516.16;5036250;28;20478;-71
2021/01/30 09:44:41;;;;;;;7.25;2.60;;;;;;;8.46;71.35;98512.78;5054404;28;20351;-71
2021/01/30 09:47:21;;;;;;;6.97;4.20;;;;;;;8.34;72.22;98503.94;5020521;28;20390;-70
2021/01/30 09:49:58;;;;;;;10.25;5.20;;;;;;;8.20;72.89;98512.13;5054414;28;20486;-69
2021/01/30 09:52:24;;;;;;;11.10;5.22;;;;;;;7.85;73.36;98454.66;5054666;28;20025;-71
2021/01/30 09:55:01;;;;;;;10.23;5.60;;;;;;;7.97;74.03;98513.91;5036623;28;20047;-72
2021/01/30 09:57:27;;;;;;;11.10;6.03;;;;;;;7.91;74.43;98501.97;5054861;28;20025;-71
2021/01/30 09:59:57;;;;;;;11.82;6.13;;;;;;;7.90;74.89;98508.22;5037078;28;20116;-72
2021/01/30 10:02:24;;;;;;;12.25;6.10;;;;;;;7.89;75.64;98484.44;5054713;28;20386;-72
2021/01/30 10:05:11;;;;;;;13.00;6.07;;;;;;;7.97;75.88;98485.56;5054416;28;20123;-72
2021/01/30 10:07:37;;;;;;;12.73;6.25;;;;;;;8.20;74.71;98491.75;5054715;28;20029;-73
2021/01/30 10:10:25;;;;;;;10.80;6.57;;;;;;;8.26;74.91;98493.06;5054548;28;20044;-72
2021/01/30 10:12:52;;;;;;;12.98;6.68;;;;;;;8.35;74.20;98489.72;5054407;28;20040;-73
2021/01/30 10:15:52;;;;;;;15.75;6.65;;;;;;;8.46;73.84;98495.03;5054427;28;20032;-73
2021/01/30 10:18:20;;;;;;;15.00;7.05;;;;;;;8.58;73.73;98480.75;5023580;28;20040;-73
2021/01/30 10:20:55;;;;;;;14.00;7.53;;;;;;;8.71;73.03;98485.09;5054171;28;20037;-70
2021/01/30 10:23:34;;;;;;;14.25;8.43;;;;;;;8.77;72.74;98482.78;5054305;28;20036;-73
2021/01/30 10:26:11;;;;;;;11.75;6.68;;;;;;;8.69;73.51;98487.03;5054701;28;20066;-72
2021/01/30 10:29:01;;;;;;;13.48;7.85;;;;;;;8.78;73.33;98475.63;5054202;28;20111;-71
2021/01/30 10:31:38;;;;;;;13.75;7.97;;;;;;;8.76;73.01;98478.44;5054265;28;20033;-70
2021/01/30 10:34:22;;;;;;;13.68;8.38;;;;;;;8.95;72.93;98488.41;5054346;28;20116;-70
2021/01/30 10:37:03;;;;;;;12.95;8.00;;;;;;;9.00;73.65;98485.41;5053990;28;20025;-69
2021/01/30 10:39:35;;;;;;;14.13;7.85;;;;;;;9.01;73.22;98471.97;5054571;28;20104;-70
2021/01/30 10:42:07;;;;;;;13.63;7.10;;;;;;;9.23;72.15;98480.84;5053816;28;20504;-71
2021/01/30 10:44:35;;;;;;;13.87;7.30;;;;;;;9.33;71.54;98476.44;5053865;28;20029;-71
2021/01/30 10:47:03;;;;;;;14.73;7.15;;;;;;;9.51;70.96;98477.56;5053905;28;20361;-71
2021/01/30 10:49:32;;;;;;;14.68;6.90;;;;;;;9.56;70.27;98475.38;5053847;28;20486;-71
2021/01/30 10:52:22;;;;;;;14.18;6.28;;;;;;;9.50;69.06;98477.72;5102957;27;20344;-72
2021/01/30 10:54:48;;;;;;;11.20;6.57;;;;;;;9.47;70.28;98465.50;5070130;28;20401;-69
2021/01/30 10:57:16;;;;;;;14.43;8.07;;;;;;;9.61;70.77;98480.31;5070346;28;20040;-71
2021/01/30 10:59:50;;;;;;;13.23;7.75;;;;;;;9.55;71.18;98483.47;5068451;28;20024;-71
2021/01/30 11:02:20;;;;;;;14.20;7.72;;;;;;;9.47;71.30;98478.81;5070242;28;20029;-71
2021/01/30 11:05:22;;;;;;;15.27;8.20;;;;;;;9.28;71.15;98460.88;5069972;28;20131;-71
2021/01/30 11:07:51;;;;;;;14.82;8.70;;;;;;;8.94;72.33;98460.13;5066598;28;20045;-71
2021/01/30 11:10:41;;;;;;;12.82;8.30;;;;;;;9.02;72.77;98465.69;5068777;28;20028;-70
2021/01/30 11:13:18;;;;;;;16.02;9.00;;;;;;;8.95;73.11;98456.50;5070163;28;20032;-70
2021/01/30 11:15:45;;;;;;;16.92;8.88;;;;;;;8.69;73.07;98425.91;5069605;28;20041;-70
2021/01/30 11:18:28;;;;;;;16.13;8.70;;;;;;;8.80;74.02;98452.47;5070054;28;20462;-70
2021/01/30 11:20:56;;;;;;;14.40;8.43;;;;;;;8.78;74.36;98454.38;5069611;28;20098;-70
2021/01/30 11:23:42;;;;;;;19.38;8.98;;;;;;;8.66;73.96;98448.25;5069851;28;20114;-70
2021/01/30 11:26:14;;;;;;;15.93;8.23;;;;;;;8.69;74.20;98436.53;5070050;28;20044;-68
2021/01/30 11:28:39;;;;;;;17.73;9.02;;;;;;;8.74;73.77;98437.00;5069168;28;20028;-73
2021/01/30 11:31:05;;;;;;;14.00;7.80;;;;;;;8.72;73.47;98428.31;5069809;28;20039;-71
2021/01/30 11:33:32;;;;;;;14.38;7.65;;;;;;;8.83;73.54;98433.59;5068442;28;20398;-70
2021/01/30 11:35:58;;;;;;;13.63;7.22;;;;;;;8.81;73.25;98430.22;5069576;28;20374;-70
2021/01/30 11:38:27;;;;;;;11.60;7.28;;;;;;;8.78;73.27;98414.50;5068280;28;20045;-71
2021/01/30 11:40:55;;;;;;;12.02;7.60;;;;;;;8.82;73.02;98419.47;5068854;28;20067;-72
2021/01/30 11:43:20;;;;;;;12.82;7.63;;;;;;;8.71;73.35;98379.63;5069583;28;20036;-71
2021/01/30 11:45:47;;;;;;;13.68;7.43;;;;;;;9.02;72.55;98415.16;5067955;28;20474;-68
2021/01/30 11:48:16;;;;;;;15.65;6.88;;;;;;;9.20;71.90;98401.31;5068795;28;20020;-67
2021/01/30 11:50:42;;;;;;;12.77;5.78;;;;;;;8.96;69.57;98340.34;5068770;28;20049;-68
2021/01/30 11:53:17;;;;;;;12.70;5.40;;;;;;;9.31;70.31;98399.41;5067793;28;20153;-68
2021/01/30 11:55:44;;;;;;;10.98;5.32;;;;;;;9.41;69.00;98380.84;5068885;28;20064;-68
2021/01/30 11:58:10;;;;;;;8.82;4.75;;;;;;;9.58;68.76;98390.91;5067907;28;20385;-71
2021/01/30 12:00:36;;;;;;;11.43;5.22;;;;;;;9.68;67.97;98394.47;5068868;28;20033;-68
2021/01/30 12:03:03;;;;;;;9.98;5.20;;;;;;;9.90;67.03;98395.28;5056975;28;20071;-69
2021/01/30 12:05:28;;;;;;;14.02;7.15;;;;;;;10.06;68.50;98405.47;5055779;28;20037;-71
2021/01/30 12:07:54;;;;;;;10.10;6.75;;;;;;;10.08;67.55;98399.00;5055119;28;20437;-70
2021/01/30 12:10:20;;;;;;;13.25;6.78;;;;;;;10.12;68.16;98394.25;5055347;28;20068;-69
2021/01/30 12:12:47;;;;;;;12.90;7.22;;;;;;;10.09;68.23;98387.38;5055287;28;20025;-67
2021/01/30 12:15:12;;;;;;;15.77;7.30;;;;;;;9.96;68.12;98382.28;5055513;28;20115;-68